Rushford Village, Minnesota
Current Conditions -  °F | °C
As of 6:15 AM on Monday 26 Jan 2015 (Local Time) from KFKA Reporting Station
Light Snow Light Snow  
Wind Chill: 13°   Ceiling: 4300
Heat Index: 25°   Visibility: 3mi
Dew Point: 23°   Wind: 14mph
Humidity: 94%   Direction: 170°S
Pressure: 29.78"   Gusts: NA
Location:  43.7298°N, 91.8267°W
Report Text: KFKA 261215Z AUTO 17012KT 3SM -SN SCT006 BKN043 OVC065 M04/M05 A2978 RMK AO2 T10411050
Loading
Personal Weather Stations






























Interactive Weather Map New forecast layout! Learn more

10-Day Weather Forecast

Advertisements
Track Severe Weather on mobile